Terminal Aerodrome Forecast
Issued by NWS

Home | Current Version | Previous Version | Text Only | Print | Product List | Glossary On
Versions: 1 2 3 4 5 6 7 8 9 10 11 12 13 14
000
FTAK31 PANC 251134
TAFAGK
TAF
PAGK 251134Z 2512/2612 16008KT P6SM BKN100
     FM252100 16012KT P6SM FEW050 SCT120
     FM260400 17006KT P6SM SKC=

USA.gov is the U.S. government's official web portal to all federal, state and local government web resources and services.